KSTC/STC METAR and TAF weather

Enter ICAO airport designator
Station Type Date Time Source
KSTC METAR 2021/03/05 00:53 UTC NOAA

KSTC 050053Z 13004KT 10SM SCT085 04/M06 A3031 RMK AO2 SLP283 T00391061


Station Type Date Time Source
KSTC Decoded METAR 2021/03/05 00:53 UTC NOAA

ST. CLOUD REGIONAL AIRPORT, MN, United States (KSTC) 45-33N 094-03W
Mar 04, 2021 - 07:53 PM EST / 2021.03.05 0053 UTC
Wind: from the SE (130 degrees) at 5 MPH (4 KT):0
Visibility: 10 mile(s):0
Sky conditions: partly cloudy
Temperature: 39.0 F (3.9 C)
Dew Point: 21.0 F (-6.1 C)
Relative Humidity: 48%
Pressure (altimeter): 30.31 in. Hg (1026 hPa)
ob: KSTC 050053Z 13004KT 10SM SCT085 04/M06 A3031 RMK AO2 SLP283 T00391061
cycle: 1

Station Type Date Time Source
KSTC TAF 2021/03/04 18:22 UTC NOAA

TAF KSTC 041720Z 0418/0518 12005KT P6SM SCT250
FM050600 00000KT P6SM FEW100 SCT250
FM051600 10004KT P6SM SKC

Example: see airport list